sensor_id;sensor_type;location;lat;lon;timestamp;P1;durP1;ratioP1;P2;durP2;ratioP2
8353;SDS011;4656;48.090;11.498;2023-12-20T00:01:39;2.00;;;1.80;;
8353;SDS011;4656;48.090;11.498;2023-12-20T00:03:41;2.40;;;2.03;;
8353;SDS011;4656;48.090;11.498;2023-12-20T00:05:42;2.42;;;2.20;;
8353;SDS011;4656;48.090;11.498;2023-12-20T00:07:44;2.50;;;2.22;;
8353;SDS011;4656;48.090;11.498;2023-12-20T00:09:46;2.80;;;2.38;;
8353;SDS011;4656;48.090;11.498;2023-12-20T00:11:47;2.60;;;2.10;;
8353;SDS011;4656;48.090;11.498;2023-12-20T00:13:51;2.60;;;2.00;;
8353;SDS011;4656;48.090;11.498;2023-12-20T00:15:53;2.45;;;1.80;;
8353;SDS011;4656;48.090;11.498;2023-12-20T00:17:55;2.55;;;2.03;;
8353;SDS011;4656;48.090;11.498;2023-12-20T00:19:57;3.00;;;2.05;;
8353;SDS011;4656;48.090;11.498;2023-12-20T00:21:59;2.75;;;2.10;;
8353;SDS011;4656;48.090;11.498;2023-12-20T00:24:02;4.28;;;2.28;;
8353;SDS011;4656;48.090;11.498;2023-12-20T00:26:04;2.38;;;1.95;;
8353;SDS011;4656;48.090;11.498;2023-12-20T00:28:06;2.05;;;1.80;;
8353;SDS011;4656;48.090;11.498;2023-12-20T00:30:10;2.28;;;1.90;;
8353;SDS011;4656;48.090;11.498;2023-12-20T00:32:11;1.77;;;1.52;;
8353;SDS011;4656;48.090;11.498;2023-12-20T00:34:14;2.83;;;1.77;;
8353;SDS011;4656;48.090;11.498;2023-12-20T00:36:16;2.47;;;1.75;;
8353;SDS011;4656;48.090;11.498;2023-12-20T00:38:18;2.03;;;1.67;;
8353;SDS011;4656;48.090;11.498;2023-12-20T00:40:19;1.60;;;1.50;;
8353;SDS011;4656;48.090;11.498;2023-12-20T00:42:22;1.65;;;1.55;;
8353;SDS011;4656;48.090;11.498;2023-12-20T00:44:24;1.65;;;1.40;;
8353;SDS011;4656;48.090;11.498;2023-12-20T00:46:26;2.55;;;1.52;;
8353;SDS011;4656;48.090;11.498;2023-12-20T00:48:29;1.80;;;1.50;;
8353;SDS011;4656;48.090;11.498;2023-12-20T00:50:31;1.92;;;1.60;;
8353;SDS011;4656;48.090;11.498;2023-12-20T00:52:33;2.15;;;1.42;;
8353;SDS011;4656;48.090;11.498;2023-12-20T00:54:35;1.75;;;1.63;;
8353;SDS011;4656;48.090;11.498;2023-12-20T00:56:37;1.88;;;1.50;;
8353;SDS011;4656;48.090;11.498;2023-12-20T00:58:38;1.70;;;1.60;;
8353;SDS011;4656;48.090;11.498;2023-12-20T01:00:40;1.80;;;1.50;;
8353;SDS011;4656;48.090;11.498;2023-12-20T01:02:44;1.63;;;1.53;;
8353;SDS011;4656;48.090;11.498;2023-12-20T01:04:49;2.42;;;1.50;;
8353;SDS011;4656;48.090;11.498;2023-12-20T01:06:51;1.48;;;1.30;;
8353;SDS011;4656;48.090;11.498;2023-12-20T01:08:53;1.40;;;1.30;;
8353;SDS011;4656;48.090;11.498;2023-12-20T01:10:55;1.65;;;1.48;;
8353;SDS011;4656;48.090;11.498;2023-12-20T01:12:57;2.28;;;1.60;;
8353;SDS011;4656;48.090;11.498;2023-12-20T01:14:59;1.67;;;1.55;;
8353;SDS011;4656;48.090;11.498;2023-12-20T01:17:01;1.40;;;1.30;;
8353;SDS011;4656;48.090;11.498;2023-12-20T01:19:04;1.40;;;1.30;;
8353;SDS011;4656;48.090;11.498;2023-12-20T01:21:06;1.80;;;1.60;;
8353;SDS011;4656;48.090;11.498;2023-12-20T01:23:09;1.53;;;1.40;;
8353;SDS011;4656;48.090;11.498;2023-12-20T01:25:11;3.60;;;1.63;;
8353;SDS011;4656;48.090;11.498;2023-12-20T01:27:13;1.48;;;1.38;;
8353;SDS011;4656;48.090;11.498;2023-12-20T01:29:15;2.10;;;1.55;;
8353;SDS011;4656;48.090;11.498;2023-12-20T01:31:17;1.60;;;1.40;;
8353;SDS011;4656;48.090;11.498;2023-12-20T01:33:20;3.90;;;1.38;;
8353;SDS011;4656;48.090;11.498;2023-12-20T01:35:23;1.33;;;1.23;;
8353;SDS011;4656;48.090;11.498;2023-12-20T01:37:25;1.63;;;1.52;;
8353;SDS011;4656;48.090;11.498;2023-12-20T01:39:29;1.40;;;1.30;;
8353;SDS011;4656;48.090;11.498;2023-12-20T01:41:31;1.40;;;1.30;;
8353;SDS011;4656;48.090;11.498;2023-12-20T01:43:33;1.50;;;1.40;;
8353;SDS011;4656;48.090;11.498;2023-12-20T01:45:35;1.50;;;1.35;;
8353;SDS011;4656;48.090;11.498;2023-12-20T01:47:37;1.42;;;1.20;;
8353;SDS011;4656;48.090;11.498;2023-12-20T01:49:40;1.90;;;1.52;;
8353;SDS011;4656;48.090;11.498;2023-12-20T01:51:43;2.17;;;1.40;;
8353;SDS011;4656;48.090;11.498;2023-12-20T01:53:45;1.15;;;1.15;;
8353;SDS011;4656;48.090;11.498;2023-12-20T01:55:48;1.77;;;1.58;;
8353;SDS011;4656;48.090;11.498;2023-12-20T01:57:52;1.60;;;1.30;;
8353;SDS011;4656;48.090;11.498;2023-12-20T01:59:54;1.23;;;1.13;;
8353;SDS011;4656;48.090;11.498;2023-12-20T02:01:57;1.88;;;1.55;;
8353;SDS011;4656;48.090;11.498;2023-12-20T02:03:59;1.23;;;1.13;;
8353;SDS011;4656;48.090;11.498;2023-12-20T02:06:02;1.52;;;1.30;;
8353;SDS011;4656;48.090;11.498;2023-12-20T02:08:06;1.38;;;1.23;;
8353;SDS011;4656;48.090;11.498;2023-12-20T02:10:08;1.90;;;1.10;;
8353;SDS011;4656;48.090;11.498;2023-12-20T02:12:09;1.20;;;1.10;;
8353;SDS011;4656;48.090;11.498;2023-12-20T02:14:12;1.20;;;1.10;;
8353;SDS011;4656;48.090;11.498;2023-12-20T02:16:14;1.50;;;1.40;;
8353;SDS011;4656;48.090;11.498;2023-12-20T02:18:16;1.00;;;0.95;;
8353;SDS011;4656;48.090;11.498;2023-12-20T02:20:18;0.82;;;0.82;;
8353;SDS011;4656;48.090;11.498;2023-12-20T02:22:21;0.98;;;0.90;;
8353;SDS011;4656;48.090;11.498;2023-12-20T02:24:23;0.95;;;0.95;;
8353;SDS011;4656;48.090;11.498;2023-12-20T02:26:26;4.05;;;2.38;;
8353;SDS011;4656;48.090;11.498;2023-12-20T02:28:28;1.60;;;1.50;;
8353;SDS011;4656;48.090;11.498;2023-12-20T02:30:30;1.20;;;1.00;;
8353;SDS011;4656;48.090;11.498;2023-12-20T02:32:33;1.10;;;1.02;;
8353;SDS011;4656;48.090;11.498;2023-12-20T02:34:35;1.50;;;1.20;;
8353;SDS011;4656;48.090;11.498;2023-12-20T02:36:36;1.50;;;1.40;;
8353;SDS011;4656;48.090;11.498;2023-12-20T02:38:39;1.20;;;1.10;;
8353;SDS011;4656;48.090;11.498;2023-12-20T02:40:40;1.42;;;1.33;;
8353;SDS011;4656;48.090;11.498;2023-12-20T02:42:43;1.27;;;1.10;;
8353;SDS011;4656;48.090;11.498;2023-12-20T02:44:45;1.05;;;1.05;;
8353;SDS011;4656;48.090;11.498;2023-12-20T02:46:47;1.00;;;0.93;;
8353;SDS011;4656;48.090;11.498;2023-12-20T02:48:49;1.07;;;1.00;;
8353;SDS011;4656;48.090;11.498;2023-12-20T02:50:51;1.20;;;1.10;;
8353;SDS011;4656;48.090;11.498;2023-12-20T02:52:53;1.07;;;1.07;;
8353;SDS011;4656;48.090;11.498;2023-12-20T02:54:57;0.88;;;0.88;;
8353;SDS011;4656;48.090;11.498;2023-12-20T02:56:58;1.00;;;1.00;;
8353;SDS011;4656;48.090;11.498;2023-12-20T02:59:00;1.45;;;1.10;;
8353;SDS011;4656;48.090;11.498;2023-12-20T03:01:05;1.00;;;0.90;;
8353;SDS011;4656;48.090;11.498;2023-12-20T03:03:07;1.20;;;1.10;;
8353;SDS011;4656;48.090;11.498;2023-12-20T03:05:09;1.70;;;1.00;;
8353;SDS011;4656;48.090;11.498;2023-12-20T03:07:12;1.00;;;1.00;;
8353;SDS011;4656;48.090;11.498;2023-12-20T03:09:14;0.80;;;0.80;;
8353;SDS011;4656;48.090;11.498;2023-12-20T03:11:16;1.50;;;0.90;;
8353;SDS011;4656;48.090;11.498;2023-12-20T03:13:18;1.02;;;1.02;;
8353;SDS011;4656;48.090;11.498;2023-12-20T03:15:20;1.25;;;1.10;;
8353;SDS011;4656;48.090;11.498;2023-12-20T03:17:21;1.00;;;1.00;;
8353;SDS011;4656;48.090;11.498;2023-12-20T03:19:24;1.23;;;1.00;;
8353;SDS011;4656;48.090;11.498;2023-12-20T03:21:26;0.93;;;0.93;;
8353;SDS011;4656;48.090;11.498;2023-12-20T03:23:28;0.80;;;0.70;;
8353;SDS011;4656;48.090;11.498;2023-12-20T03:25:32;0.90;;;0.90;;
8353;SDS011;4656;48.090;11.498;2023-12-20T03:27:37;0.82;;;0.82;;
8353;SDS011;4656;48.090;11.498;2023-12-20T03:29:39;1.00;;;1.00;;
8353;SDS011;4656;48.090;11.498;2023-12-20T03:31:42;0.70;;;0.70;;
8353;SDS011;4656;48.090;11.498;2023-12-20T03:33:44;2.08;;;1.00;;
8353;SDS011;4656;48.090;11.498;2023-12-20T03:35:46;0.82;;;0.82;;
8353;SDS011;4656;48.090;11.498;2023-12-20T03:37:48;0.70;;;0.70;;
8353;SDS011;4656;48.090;11.498;2023-12-20T03:39:50;0.80;;;0.80;;
8353;SDS011;4656;48.090;11.498;2023-12-20T03:41:52;1.00;;;0.90;;
8353;SDS011;4656;48.090;11.498;2023-12-20T03:43:55;0.65;;;0.65;;
8353;SDS011;4656;48.090;11.498;2023-12-20T03:45:58;1.00;;;0.90;;
8353;SDS011;4656;48.090;11.498;2023-12-20T03:48:00;0.95;;;0.95;;
8353;SDS011;4656;48.090;11.498;2023-12-20T03:50:02;1.13;;;0.80;;
8353;SDS011;4656;48.090;11.498;2023-12-20T03:52:04;0.77;;;0.77;;
8353;SDS011;4656;48.090;11.498;2023-12-20T03:54:07;0.80;;;0.80;;
8353;SDS011;4656;48.090;11.498;2023-12-20T03:56:09;0.80;;;0.80;;
8353;SDS011;4656;48.090;11.498;2023-12-20T03:58:11;0.80;;;0.80;;
8353;SDS011;4656;48.090;11.498;2023-12-20T04:00:15;0.88;;;0.88;;
8353;SDS011;4656;48.090;11.498;2023-12-20T04:02:17;0.80;;;0.80;;
8353;SDS011;4656;48.090;11.498;2023-12-20T04:04:19;0.73;;;0.73;;
8353;SDS011;4656;48.090;11.498;2023-12-20T04:06:21;0.63;;;0.63;;
8353;SDS011;4656;48.090;11.498;2023-12-20T04:08:23;0.73;;;0.73;;
8353;SDS011;4656;48.090;11.498;2023-12-20T04:10:26;0.90;;;0.80;;
8353;SDS011;4656;48.090;11.498;2023-12-20T04:12:28;0.85;;;0.85;;
8353;SDS011;4656;48.090;11.498;2023-12-20T04:14:29;0.60;;;0.60;;
8353;SDS011;4656;48.090;11.498;2023-12-20T04:16:32;0.95;;;0.95;;
8353;SDS011;4656;48.090;11.498;2023-12-20T04:18:34;0.80;;;0.80;;
8353;SDS011;4656;48.090;11.498;2023-12-20T04:20:36;1.17;;;1.08;;
8353;SDS011;4656;48.090;11.498;2023-12-20T04:22:38;0.80;;;0.80;;
8353;SDS011;4656;48.090;11.498;2023-12-20T04:24:40;1.33;;;1.23;;
8353;SDS011;4656;48.090;11.498;2023-12-20T04:26:43;0.88;;;0.88;;
8353;SDS011;4656;48.090;11.498;2023-12-20T04:28:45;1.00;;;1.00;;
8353;SDS011;4656;48.090;11.498;2023-12-20T04:30:46;0.93;;;0.93;;
8353;SDS011;4656;48.090;11.498;2023-12-20T04:32:49;1.17;;;1.10;;
8353;SDS011;4656;48.090;11.498;2023-12-20T04:34:51;1.10;;;1.00;;
8353;SDS011;4656;48.090;11.498;2023-12-20T04:36:53;1.43;;;0.97;;
8353;SDS011;4656;48.090;11.498;2023-12-20T04:38:55;1.10;;;1.00;;
8353;SDS011;4656;48.090;11.498;2023-12-20T04:40:56;1.40;;;1.30;;
8353;SDS011;4656;48.090;11.498;2023-12-20T04:42:58;2.00;;;1.10;;
8353;SDS011;4656;48.090;11.498;2023-12-20T04:45:00;1.40;;;1.10;;
8353;SDS011;4656;48.090;11.498;2023-12-20T04:47:03;1.15;;;1.15;;
8353;SDS011;4656;48.090;11.498;2023-12-20T04:49:06;0.95;;;0.95;;
8353;SDS011;4656;48.090;11.498;2023-12-20T04:51:09;1.20;;;1.10;;
8353;SDS011;4656;48.090;11.498;2023-12-20T04:53:11;1.40;;;1.30;;
8353;SDS011;4656;48.090;11.498;2023-12-20T04:55:13;1.58;;;1.48;;
8353;SDS011;4656;48.090;11.498;2023-12-20T04:57:15;1.33;;;1.23;;
8353;SDS011;4656;48.090;11.498;2023-12-20T04:59:17;1.40;;;1.30;;
8353;SDS011;4656;48.090;11.498;2023-12-20T05:01:22;2.03;;;1.23;;
8353;SDS011;4656;48.090;11.498;2023-12-20T05:03:24;1.50;;;1.40;;
8353;SDS011;4656;48.090;11.498;2023-12-20T05:05:27;1.70;;;1.50;;
8353;SDS011;4656;48.090;11.498;2023-12-20T05:07:29;1.40;;;1.30;;
8353;SDS011;4656;48.090;11.498;2023-12-20T05:09:30;1.58;;;1.48;;
8353;SDS011;4656;48.090;11.498;2023-12-20T05:11:33;1.60;;;1.50;;
8353;SDS011;4656;48.090;11.498;2023-12-20T05:13:35;2.03;;;1.50;;
8353;SDS011;4656;48.090;11.498;2023-12-20T05:15:37;2.93;;;2.00;;
8353;SDS011;4656;48.090;11.498;2023-12-20T05:17:39;2.05;;;1.85;;
8353;SDS011;4656;48.090;11.498;2023-12-20T05:19:41;1.90;;;1.80;;
8353;SDS011;4656;48.090;11.498;2023-12-20T05:21:45;1.75;;;1.65;;
8353;SDS011;4656;48.090;11.498;2023-12-20T05:23:47;2.35;;;1.88;;
8353;SDS011;4656;48.090;11.498;2023-12-20T05:25:49;3.05;;;1.80;;
8353;SDS011;4656;48.090;11.498;2023-12-20T05:27:51;2.08;;;1.80;;
8353;SDS011;4656;48.090;11.498;2023-12-20T05:29:53;2.53;;;2.08;;
8353;SDS011;4656;48.090;11.498;2023-12-20T05:31:57;2.28;;;1.73;;
8353;SDS011;4656;48.090;11.498;2023-12-20T05:34:00;2.05;;;1.80;;
8353;SDS011;4656;48.090;11.498;2023-12-20T05:36:02;2.30;;;2.10;;
8353;SDS011;4656;48.090;11.498;2023-12-20T05:38:06;4.95;;;1.92;;
8353;SDS011;4656;48.090;11.498;2023-12-20T05:40:08;2.00;;;1.80;;
8353;SDS011;4656;48.090;11.498;2023-12-20T05:42:10;2.50;;;1.90;;
8353;SDS011;4656;48.090;11.498;2023-12-20T05:44:11;2.90;;;1.90;;
8353;SDS011;4656;48.090;11.498;2023-12-20T05:46:14;2.42;;;1.90;;
8353;SDS011;4656;48.090;11.498;2023-12-20T05:48:16;2.05;;;1.88;;
8353;SDS011;4656;48.090;11.498;2023-12-20T05:50:18;3.40;;;2.00;;
8353;SDS011;4656;48.090;11.498;2023-12-20T05:52:21;2.05;;;1.85;;
8353;SDS011;4656;48.090;11.498;2023-12-20T05:54:24;1.80;;;1.70;;
8353;SDS011;4656;48.090;11.498;2023-12-20T05:56:26;1.70;;;1.60;;
8353;SDS011;4656;48.090;11.498;2023-12-20T05:58:28;2.13;;;1.85;;
8353;SDS011;4656;48.090;11.498;2023-12-20T06:00:31;2.78;;;1.88;;
8353;SDS011;4656;48.090;11.498;2023-12-20T06:02:33;2.13;;;1.90;;
8353;SDS011;4656;48.090;11.498;2023-12-20T06:04:36;2.42;;;1.77;;
8353;SDS011;4656;48.090;11.498;2023-12-20T06:06:41;2.20;;;1.80;;
8353;SDS011;4656;48.090;11.498;2023-12-20T06:08:44;3.28;;;1.73;;
8353;SDS011;4656;48.090;11.498;2023-12-20T06:10:48;1.95;;;1.75;;
8353;SDS011;4656;48.090;11.498;2023-12-20T06:12:50;2.75;;;2.00;;
8353;SDS011;4656;48.090;11.498;2023-12-20T06:14:52;2.15;;;1.83;;
8353;SDS011;4656;48.090;11.498;2023-12-20T06:16:54;2.67;;;1.77;;
8353;SDS011;4656;48.090;11.498;2023-12-20T06:18:56;2.10;;;1.90;;
8353;SDS011;4656;48.090;11.498;2023-12-20T06:20:58;1.80;;;1.70;;
8353;SDS011;4656;48.090;11.498;2023-12-20T06:23:01;3.72;;;1.80;;
8353;SDS011;4656;48.090;11.498;2023-12-20T06:25:03;1.73;;;1.63;;
8353;SDS011;4656;48.090;11.498;2023-12-20T06:27:06;1.85;;;1.70;;
8353;SDS011;4656;48.090;11.498;2023-12-20T06:29:09;1.60;;;1.50;;
8353;SDS011;4656;48.090;11.498;2023-12-20T06:31:11;2.10;;;1.63;;
8353;SDS011;4656;48.090;11.498;2023-12-20T06:33:13;2.63;;;2.10;;
8353;SDS011;4656;48.090;11.498;2023-12-20T06:35:14;3.78;;;2.00;;
8353;SDS011;4656;48.090;11.498;2023-12-20T06:37:17;2.47;;;1.80;;
8353;SDS011;4656;48.090;11.498;2023-12-20T06:39:19;2.10;;;1.65;;
8353;SDS011;4656;48.090;11.498;2023-12-20T06:41:20;2.22;;;1.80;;
8353;SDS011;4656;48.090;11.498;2023-12-20T06:43:25;1.60;;;1.50;;
8353;SDS011;4656;48.090;11.498;2023-12-20T06:45:28;2.65;;;1.67;;
8353;SDS011;4656;48.090;11.498;2023-12-20T06:47:30;1.77;;;1.67;;
8353;SDS011;4656;48.090;11.498;2023-12-20T06:49:32;2.08;;;1.50;;
8353;SDS011;4656;48.090;11.498;2023-12-20T06:51:34;1.45;;;1.35;;
8353;SDS011;4656;48.090;11.498;2023-12-20T06:53:37;2.72;;;1.60;;
8353;SDS011;4656;48.090;11.498;2023-12-20T06:55:39;2.47;;;1.80;;
8353;SDS011;4656;48.090;11.498;2023-12-20T06:57:41;1.73;;;1.40;;
8353;SDS011;4656;48.090;11.498;2023-12-20T06:59:44;1.60;;;1.50;;
8353;SDS011;4656;48.090;11.498;2023-12-20T07:01:47;6.70;;;1.60;;
8353;SDS011;4656;48.090;11.498;2023-12-20T07:03:50;2.83;;;1.63;;
8353;SDS011;4656;48.090;11.498;2023-12-20T07:05:52;1.45;;;1.35;;
8353;SDS011;4656;48.090;11.498;2023-12-20T07:07:53;1.88;;;1.20;;
8353;SDS011;4656;48.090;11.498;2023-12-20T07:09:55;2.53;;;1.60;;
8353;SDS011;4656;48.090;11.498;2023-12-20T07:11:57;2.35;;;1.80;;
8353;SDS011;4656;48.090;11.498;2023-12-20T07:13:59;1.60;;;1.35;;
8353;SDS011;4656;48.090;11.498;2023-12-20T07:16:03;1.77;;;1.20;;
8353;SDS011;4656;48.090;11.498;2023-12-20T07:18:05;1.17;;;1.08;;
8353;SDS011;4656;48.090;11.498;2023-12-20T07:20:08;3.00;;;1.40;;
8353;SDS011;4656;48.090;11.498;2023-12-20T07:22:11;1.40;;;1.30;;
8353;SDS011;4656;48.090;11.498;2023-12-20T07:24:13;1.45;;;1.10;;
8353;SDS011;4656;48.090;11.498;2023-12-20T07:26:15;1.50;;;1.40;;
8353;SDS011;4656;48.090;11.498;2023-12-20T07:28:19;1.60;;;1.30;;
8353;SDS011;4656;48.090;11.498;2023-12-20T07:30:21;1.20;;;1.10;;
8353;SDS011;4656;48.090;11.498;2023-12-20T07:32:24;1.30;;;1.20;;
8353;SDS011;4656;48.090;11.498;2023-12-20T07:34:27;1.50;;;1.40;;
8353;SDS011;4656;48.090;11.498;2023-12-20T07:36:29;1.30;;;1.20;;
8353;SDS011;4656;48.090;11.498;2023-12-20T07:38:31;1.40;;;1.30;;
8353;SDS011;4656;48.090;11.498;2023-12-20T07:40:33;1.73;;;1.20;;
8353;SDS011;4656;48.090;11.498;2023-12-20T07:42:35;2.88;;;1.40;;
8353;SDS011;4656;48.090;11.498;2023-12-20T07:44:37;1.13;;;1.08;;
8353;SDS011;4656;48.090;11.498;2023-12-20T07:46:39;1.67;;;1.57;;
8353;SDS011;4656;48.090;11.498;2023-12-20T07:48:42;3.55;;;2.40;;
8353;SDS011;4656;48.090;11.498;2023-12-20T07:50:46;2.60;;;1.80;;
8353;SDS011;4656;48.090;11.498;2023-12-20T07:52:48;2.03;;;1.70;;
8353;SDS011;4656;48.090;11.498;2023-12-20T07:54:50;4.38;;;1.80;;
8353;SDS011;4656;48.090;11.498;2023-12-20T07:56:52;2.28;;;1.40;;
8353;SDS011;4656;48.090;11.498;2023-12-20T07:58:54;2.30;;;1.80;;
8353;SDS011;4656;48.090;11.498;2023-12-20T08:00:57;1.35;;;1.25;;
8353;SDS011;4656;48.090;11.498;2023-12-20T08:02:59;2.08;;;1.30;;
8353;SDS011;4656;48.090;11.498;2023-12-20T08:05:05;1.30;;;1.17;;
8353;SDS011;4656;48.090;11.498;2023-12-20T08:07:07;1.70;;;1.60;;
8353;SDS011;4656;48.090;11.498;2023-12-20T08:09:09;1.40;;;1.30;;
8353;SDS011;4656;48.090;11.498;2023-12-20T08:11:11;2.03;;;1.73;;
8353;SDS011;4656;48.090;11.498;2023-12-20T08:13:13;1.23;;;1.13;;
8353;SDS011;4656;48.090;11.498;2023-12-20T08:15:16;1.40;;;1.30;;
8353;SDS011;4656;48.090;11.498;2023-12-20T08:17:18;1.30;;;1.20;;
8353;SDS011;4656;48.090;11.498;2023-12-20T08:19:20;1.23;;;1.13;;
8353;SDS011;4656;48.090;11.498;2023-12-20T08:21:23;1.20;;;1.10;;
8353;SDS011;4656;48.090;11.498;2023-12-20T08:23:24;1.23;;;1.13;;
8353;SDS011;4656;48.090;11.498;2023-12-20T08:25:26;1.15;;;1.10;;
8353;SDS011;4656;48.090;11.498;2023-12-20T08:27:29;1.67;;;1.13;;
8353;SDS011;4656;48.090;11.498;2023-12-20T08:29:31;1.30;;;1.00;;
8353;SDS011;4656;48.090;11.498;2023-12-20T08:31:33;1.00;;;1.00;;
8353;SDS011;4656;48.090;11.498;2023-12-20T08:33:36;1.60;;;1.00;;
8353;SDS011;4656;48.090;11.498;2023-12-20T08:35:37;1.00;;;1.00;;
8353;SDS011;4656;48.090;11.498;2023-12-20T08:37:40;1.25;;;1.15;;
8353;SDS011;4656;48.090;11.498;2023-12-20T08:39:41;1.20;;;1.10;;
8353;SDS011;4656;48.090;11.498;2023-12-20T08:41:44;1.00;;;1.00;;
8353;SDS011;4656;48.090;11.498;2023-12-20T08:43:46;1.17;;;1.17;;
8353;SDS011;4656;48.090;11.498;2023-12-20T08:45:48;1.40;;;1.30;;
8353;SDS011;4656;48.090;11.498;2023-12-20T08:47:51;1.15;;;1.08;;
8353;SDS011;4656;48.090;11.498;2023-12-20T08:49:53;0.95;;;0.95;;
8353;SDS011;4656;48.090;11.498;2023-12-20T08:51:56;1.20;;;1.10;;
8353;SDS011;4656;48.090;11.498;2023-12-20T08:54:00;0.90;;;0.90;;
8353;SDS011;4656;48.090;11.498;2023-12-20T08:56:01;1.08;;;1.08;;
8353;SDS011;4656;48.090;11.498;2023-12-20T08:58:03;1.27;;;1.17;;
8353;SDS011;4656;48.090;11.498;2023-12-20T09:00:07;1.05;;;1.05;;
8353;SDS011;4656;48.090;11.498;2023-12-20T09:02:09;3.20;;;1.10;;
8353;SDS011;4656;48.090;11.498;2023-12-20T09:04:10;1.58;;;1.20;;
8353;SDS011;4656;48.090;11.498;2023-12-20T09:06:13;1.38;;;1.00;;
8353;SDS011;4656;48.090;11.498;2023-12-20T09:08:15;1.65;;;1.20;;
8353;SDS011;4656;48.090;11.498;2023-12-20T09:10:19;1.20;;;1.10;;
8353;SDS011;4656;48.090;11.498;2023-12-20T09:12:31;1.15;;;1.05;;
8353;SDS011;4656;48.090;11.498;2023-12-20T09:14:33;1.27;;;1.13;;
8353;SDS011;4656;48.090;11.498;2023-12-20T09:16:34;1.13;;;1.02;;
8353;SDS011;4656;48.090;11.498;2023-12-20T09:18:36;2.45;;;1.30;;
8353;SDS011;4656;48.090;11.498;2023-12-20T09:20:38;1.30;;;1.15;;
8353;SDS011;4656;48.090;11.498;2023-12-20T09:22:39;1.10;;;1.10;;
8353;SDS011;4656;48.090;11.498;2023-12-20T09:24:42;1.30;;;1.20;;
8353;SDS011;4656;48.090;11.498;2023-12-20T09:26:45;1.20;;;1.10;;
8353;SDS011;4656;48.090;11.498;2023-12-20T09:28:47;1.38;;;0.95;;
8353;SDS011;4656;48.090;11.498;2023-12-20T09:30:49;1.95;;;1.40;;
8353;SDS011;4656;48.090;11.498;2023-12-20T09:32:51;1.42;;;1.33;;
8353;SDS011;4656;48.090;11.498;2023-12-20T09:34:52;1.15;;;1.05;;
8353;SDS011;4656;48.090;11.498;2023-12-20T09:36:55;1.13;;;1.10;;
8353;SDS011;4656;48.090;11.498;2023-12-20T09:38:57;0.90;;;0.90;;
8353;SDS011;4656;48.090;11.498;2023-12-20T09:40:59;0.90;;;0.90;;
8353;SDS011;4656;48.090;11.498;2023-12-20T09:43:04;1.35;;;1.10;;
8353;SDS011;4656;48.090;11.498;2023-12-20T09:45:07;1.10;;;1.00;;
8353;SDS011;4656;48.090;11.498;2023-12-20T09:47:09;0.98;;;0.98;;
8353;SDS011;4656;48.090;11.498;2023-12-20T09:49:11;1.00;;;1.00;;
8353;SDS011;4656;48.090;11.498;2023-12-20T09:51:14;1.15;;;1.05;;
8353;SDS011;4656;48.090;11.498;2023-12-20T09:53:16;1.15;;;1.10;;
8353;SDS011;4656;48.090;11.498;2023-12-20T09:55:19;1.13;;;1.00;;
8353;SDS011;4656;48.090;11.498;2023-12-20T09:57:22;1.33;;;1.27;;
8353;SDS011;4656;48.090;11.498;2023-12-20T09:59:25;1.35;;;1.25;;
8353;SDS011;4656;48.090;11.498;2023-12-20T10:01:27;1.67;;;1.58;;
8353;SDS011;4656;48.090;11.498;2023-12-20T10:03:30;1.42;;;1.33;;
8353;SDS011;4656;48.090;11.498;2023-12-20T10:05:32;2.30;;;1.40;;
8353;SDS011;4656;48.090;11.498;2023-12-20T10:07:34;1.30;;;1.20;;
8353;SDS011;4656;48.090;11.498;2023-12-20T10:09:37;1.08;;;0.98;;
8353;SDS011;4656;48.090;11.498;2023-12-20T10:11:39;1.30;;;1.20;;
8353;SDS011;4656;48.090;11.498;2023-12-20T10:13:42;1.27;;;1.17;;
8353;SDS011;4656;48.090;11.498;2023-12-20T10:15:46;1.35;;;1.25;;
8353;SDS011;4656;48.090;11.498;2023-12-20T10:17:48;1.40;;;1.30;;
8353;SDS011;4656;48.090;11.498;2023-12-20T10:19:50;1.60;;;1.50;;
8353;SDS011;4656;48.090;11.498;2023-12-20T10:21:52;1.55;;;1.45;;
8353;SDS011;4656;48.090;11.498;2023-12-20T10:23:55;2.10;;;1.67;;
8353;SDS011;4656;48.090;11.498;2023-12-20T10:25:56;1.60;;;1.50;;
8353;SDS011;4656;48.090;11.498;2023-12-20T10:28:08;1.38;;;1.33;;
8353;SDS011;4656;48.090;11.498;2023-12-20T10:30:11;3.22;;;1.20;;
8353;SDS011;4656;48.090;11.498;2023-12-20T10:32:25;2.30;;;1.30;;
8353;SDS011;4656;48.090;11.498;2023-12-20T10:34:27;1.50;;;1.40;;
8353;SDS011;4656;48.090;11.498;2023-12-20T10:36:30;1.63;;;1.52;;
8353;SDS011;4656;48.090;11.498;2023-12-20T10:38:32;2.13;;;1.30;;
8353;SDS011;4656;48.090;11.498;2023-12-20T10:40:36;1.40;;;1.30;;
8353;SDS011;4656;48.090;11.498;2023-12-20T10:42:37;1.00;;;1.00;;
8353;SDS011;4656;48.090;11.498;2023-12-20T10:44:39;2.10;;;1.70;;
8353;SDS011;4656;48.090;11.498;2023-12-20T10:46:40;1.40;;;1.30;;
8353;SDS011;4656;48.090;11.498;2023-12-20T10:48:48;1.83;;;1.40;;
8353;SDS011;4656;48.090;11.498;2023-12-20T10:50:54;1.70;;;1.52;;
8353;SDS011;4656;48.090;11.498;2023-12-20T10:52:57;1.98;;;1.48;;
8353;SDS011;4656;48.090;11.498;2023-12-20T10:54:58;2.15;;;1.85;;
8353;SDS011;4656;48.090;11.498;2023-12-20T10:57:01;2.37;;;1.50;;
8353;SDS011;4656;48.090;11.498;2023-12-20T10:59:05;2.75;;;2.03;;
8353;SDS011;4656;48.090;11.498;2023-12-20T11:01:10;3.17;;;2.10;;
8353;SDS011;4656;48.090;11.498;2023-12-20T11:03:13;3.88;;;2.45;;
8353;SDS011;4656;48.090;11.498;2023-12-20T11:05:25;2.45;;;1.77;;
8353;SDS011;4656;48.090;11.498;2023-12-20T11:07:30;2.17;;;1.43;;
8353;SDS011;4656;48.090;11.498;2023-12-20T11:09:35;1.23;;;1.13;;
8353;SDS011;4656;48.090;11.498;2023-12-20T11:11:41;1.90;;;1.40;;
8353;SDS011;4656;48.090;11.498;2023-12-20T11:13:48;2.25;;;1.40;;
8353;SDS011;4656;48.090;11.498;2023-12-20T11:15:55;2.33;;;1.52;;
8353;SDS011;4656;48.090;11.498;2023-12-20T11:17:58;1.50;;;1.37;;
8353;SDS011;4656;48.090;11.498;2023-12-20T11:20:04;1.58;;;1.48;;
8353;SDS011;4656;48.090;11.498;2023-12-20T11:22:06;2.00;;;1.60;;
8353;SDS011;4656;48.090;11.498;2023-12-20T11:24:09;1.50;;;1.40;;
8353;SDS011;4656;48.090;11.498;2023-12-20T11:26:11;1.92;;;1.70;;
8353;SDS011;4656;48.090;11.498;2023-12-20T11:28:20;2.30;;;1.65;;
8353;SDS011;4656;48.090;11.498;2023-12-20T11:30:22;1.35;;;1.25;;
8353;SDS011;4656;48.090;11.498;2023-12-20T11:32:28;1.35;;;1.25;;
8353;SDS011;4656;48.090;11.498;2023-12-20T11:34:31;2.58;;;1.50;;
8353;SDS011;4656;48.090;11.498;2023-12-20T11:36:33;4.53;;;1.60;;
8353;SDS011;4656;48.090;11.498;2023-12-20T11:38:37;1.55;;;1.45;;
8353;SDS011;4656;48.090;11.498;2023-12-20T11:40:40;3.47;;;1.73;;
8353;SDS011;4656;48.090;11.498;2023-12-20T11:42:43;1.52;;;1.42;;
8353;SDS011;4656;48.090;11.498;2023-12-20T11:44:46;1.40;;;1.30;;
8353;SDS011;4656;48.090;11.498;2023-12-20T11:46:47;2.10;;;1.70;;
8353;SDS011;4656;48.090;11.498;2023-12-20T11:48:49;1.73;;;1.63;;
8353;SDS011;4656;48.090;11.498;2023-12-20T11:50:52;1.67;;;1.58;;
8353;SDS011;4656;48.090;11.498;2023-12-20T11:52:54;1.60;;;1.50;;
8353;SDS011;4656;48.090;11.498;2023-12-20T11:54:58;1.50;;;1.40;;
8353;SDS011;4656;48.090;11.498;2023-12-20T11:57:00;1.95;;;1.70;;
8353;SDS011;4656;48.090;11.498;2023-12-20T11:59:02;1.75;;;1.50;;
8353;SDS011;4656;48.090;11.498;2023-12-20T12:01:05;1.83;;;1.67;;
8353;SDS011;4656;48.090;11.498;2023-12-20T12:03:07;1.80;;;1.70;;
8353;SDS011;4656;48.090;11.498;2023-12-20T12:05:09;1.60;;;1.50;;
8353;SDS011;4656;48.090;11.498;2023-12-20T12:07:11;2.37;;;1.47;;
8353;SDS011;4656;48.090;11.498;2023-12-20T12:09:13;1.90;;;1.60;;
8353;SDS011;4656;48.090;11.498;2023-12-20T12:11:17;1.90;;;1.70;;
8353;SDS011;4656;48.090;11.498;2023-12-20T12:13:19;1.73;;;1.60;;
8353;SDS011;4656;48.090;11.498;2023-12-20T12:15:21;2.00;;;1.52;;
8353;SDS011;4656;48.090;11.498;2023-12-20T12:17:23;2.90;;;1.60;;
8353;SDS011;4656;48.090;11.498;2023-12-20T12:19:26;1.83;;;1.52;;
8353;SDS011;4656;48.090;11.498;2023-12-20T12:21:29;1.75;;;1.65;;
8353;SDS011;4656;48.090;11.498;2023-12-20T12:23:30;2.85;;;1.80;;
8353;SDS011;4656;48.090;11.498;2023-12-20T12:25:34;2.78;;;2.30;;
8353;SDS011;4656;48.090;11.498;2023-12-20T12:27:38;2.05;;;1.85;;
8353;SDS011;4656;48.090;11.498;2023-12-20T12:29:40;5.93;;;2.80;;